NBO weather

Jomo Kenyatta International Airport
Nairobi, Nairobi Province, Kenya

Public forecast

Using degrees Celsius for public forecast. Weather courtesy of forecast.io.

METAR (pilot weather report)

Report is more than 6 hours old.

Retrieved 2019/04/21 12:30 UTC (4 days ago):

HKJK 211230Z 06011KT 9999 FEW028CB BKN030 30/11 Q1015 NOSIG

TAF (pilot weather forecast)

Forecast is more than 12 hours old.

Retrieved 2019/04/23 06:54 UTC (2 days ago):

TAF HKJK 230500Z 2306/2412 VRB05KT 9999 BKN017 BECMG 2308/2311 15010KT FEW026CB BKN027 TEMPO 2316/2322 TSSHRA FEW025CB BKN026 BKN080 BECMG 2323/2402 VRB05KT -RA FEW020 BKN021 TEMPO 2401/2407 -RA SCT010 BKN018 BECMG 2408/2411 15010KT FEW026CB BKN027